sensor_id;sensor_type;location;lat;lon;timestamp;P1;durP1;ratioP1;P2;durP2;ratioP2
12958;SDS011;6544;51.666;6.634;2023-08-06T00:02:11;4.82;;;4.10;;
12958;SDS011;6544;51.666;6.634;2023-08-06T00:04:38;5.05;;;3.95;;
12958;SDS011;6544;51.666;6.634;2023-08-06T00:07:05;7.70;;;4.43;;
12958;SDS011;6544;51.666;6.634;2023-08-06T00:09:32;5.93;;;4.25;;
12958;SDS011;6544;51.666;6.634;2023-08-06T00:11:59;5.40;;;4.32;;
12958;SDS011;6544;51.666;6.634;2023-08-06T00:14:27;6.82;;;4.32;;
12958;SDS011;6544;51.666;6.634;2023-08-06T00:16:54;6.20;;;4.68;;
12958;SDS011;6544;51.666;6.634;2023-08-06T00:19:21;8.80;;;4.72;;
12958;SDS011;6544;51.666;6.634;2023-08-06T00:21:48;7.13;;;4.57;;
12958;SDS011;6544;51.666;6.634;2023-08-06T00:24:15;5.97;;;4.78;;
12958;SDS011;6544;51.666;6.634;2023-08-06T00:26:45;7.75;;;4.68;;
12958;SDS011;6544;51.666;6.634;2023-08-06T00:29:11;5.95;;;4.10;;
12958;SDS011;6544;51.666;6.634;2023-08-06T00:34:08;5.70;;;4.03;;
12958;SDS011;6544;51.666;6.634;2023-08-06T00:36:34;6.60;;;4.63;;
12958;SDS011;6544;51.666;6.634;2023-08-06T00:39:01;5.43;;;4.25;;
12958;SDS011;6544;51.666;6.634;2023-08-06T00:41:28;6.47;;;4.35;;
12958;SDS011;6544;51.666;6.634;2023-08-06T00:43:55;7.47;;;5.40;;
12958;SDS011;6544;51.666;6.634;2023-08-06T00:46:22;6.18;;;4.90;;
12958;SDS011;6544;51.666;6.634;2023-08-06T00:48:50;8.23;;;4.43;;
12958;SDS011;6544;51.666;6.634;2023-08-06T00:51:19;6.32;;;4.47;;
12958;SDS011;6544;51.666;6.634;2023-08-06T00:53:47;5.55;;;4.65;;
12958;SDS011;6544;51.666;6.634;2023-08-06T00:56:14;6.88;;;4.85;;
12958;SDS011;6544;51.666;6.634;2023-08-06T00:58:41;6.95;;;4.60;;
12958;SDS011;6544;51.666;6.634;2023-08-06T01:01:09;5.57;;;4.40;;
12958;SDS011;6544;51.666;6.634;2023-08-06T01:03:35;5.82;;;4.15;;
12958;SDS011;6544;51.666;6.634;2023-08-06T01:06:02;4.90;;;4.28;;
12958;SDS011;6544;51.666;6.634;2023-08-06T01:08:34;5.18;;;4.63;;
12958;SDS011;6544;51.666;6.634;2023-08-06T01:11:14;5.15;;;4.40;;
12958;SDS011;6544;51.666;6.634;2023-08-06T01:13:50;4.88;;;4.28;;
12958;SDS011;6544;51.666;6.634;2023-08-06T01:16:21;4.85;;;4.45;;
12958;SDS011;6544;51.666;6.634;2023-08-06T01:18:49;6.95;;;5.13;;
12958;SDS011;6544;51.666;6.634;2023-08-06T01:21:17;6.68;;;4.28;;
12958;SDS011;6544;51.666;6.634;2023-08-06T01:23:45;5.95;;;4.63;;
12958;SDS011;6544;51.666;6.634;2023-08-06T01:26:14;6.60;;;5.00;;
12958;SDS011;6544;51.666;6.634;2023-08-06T01:28:48;6.82;;;4.65;;
12958;SDS011;6544;51.666;6.634;2023-08-06T01:31:24;6.13;;;4.85;;
12958;SDS011;6544;51.666;6.634;2023-08-06T01:33:53;6.10;;;4.90;;
12958;SDS011;6544;51.666;6.634;2023-08-06T01:36:23;5.75;;;5.00;;
12958;SDS011;6544;51.666;6.634;2023-08-06T01:38:51;8.15;;;4.90;;
12958;SDS011;6544;51.666;6.634;2023-08-06T01:41:18;6.80;;;5.00;;
12958;SDS011;6544;51.666;6.634;2023-08-06T01:43:45;6.20;;;4.70;;
12958;SDS011;6544;51.666;6.634;2023-08-06T01:46:12;5.47;;;4.75;;
12958;SDS011;6544;51.666;6.634;2023-08-06T01:48:39;5.93;;;5.13;;
12958;SDS011;6544;51.666;6.634;2023-08-06T01:51:06;6.80;;;5.30;;
12958;SDS011;6544;51.666;6.634;2023-08-06T01:53:34;7.93;;;5.43;;
12958;SDS011;6544;51.666;6.634;2023-08-06T01:56:01;7.15;;;5.57;;
12958;SDS011;6544;51.666;6.634;2023-08-06T01:58:28;9.07;;;6.00;;
12958;SDS011;6544;51.666;6.634;2023-08-06T02:00:55;8.10;;;5.75;;
12958;SDS011;6544;51.666;6.634;2023-08-06T02:03:22;9.05;;;5.80;;
12958;SDS011;6544;51.666;6.634;2023-08-06T02:05:49;9.25;;;7.07;;
12958;SDS011;6544;51.666;6.634;2023-08-06T02:08:16;7.00;;;6.03;;
12958;SDS011;6544;51.666;6.634;2023-08-06T02:10:45;6.85;;;6.15;;
12958;SDS011;6544;51.666;6.634;2023-08-06T02:13:12;6.85;;;6.15;;
12958;SDS011;6544;51.666;6.634;2023-08-06T02:15:41;12.38;;;6.95;;
12958;SDS011;6544;51.666;6.634;2023-08-06T02:18:09;10.27;;;6.85;;
12958;SDS011;6544;51.666;6.634;2023-08-06T02:20:36;9.98;;;6.88;;
12958;SDS011;6544;51.666;6.634;2023-08-06T02:23:03;9.95;;;7.72;;
12958;SDS011;6544;51.666;6.634;2023-08-06T02:25:30;10.75;;;7.88;;
12958;SDS011;6544;51.666;6.634;2023-08-06T02:27:58;8.75;;;6.90;;
12958;SDS011;6544;51.666;6.634;2023-08-06T02:30:25;8.18;;;7.30;;
12958;SDS011;6544;51.666;6.634;2023-08-06T02:32:52;7.90;;;6.90;;
12958;SDS011;6544;51.666;6.634;2023-08-06T02:35:18;14.52;;;7.50;;
12958;SDS011;6544;51.666;6.634;2023-08-06T02:37:45;9.07;;;7.35;;
12958;SDS011;6544;51.666;6.634;2023-08-06T02:40:12;8.13;;;6.65;;
12958;SDS011;6544;51.666;6.634;2023-08-06T02:42:39;8.05;;;6.47;;
12958;SDS011;6544;51.666;6.634;2023-08-06T02:45:08;7.25;;;5.97;;
12958;SDS011;6544;51.666;6.634;2023-08-06T02:47:35;8.48;;;6.00;;
12958;SDS011;6544;51.666;6.634;2023-08-06T02:50:02;8.00;;;5.60;;
12958;SDS011;6544;51.666;6.634;2023-08-06T02:52:29;6.53;;;5.45;;
12958;SDS011;6544;51.666;6.634;2023-08-06T02:54:56;8.38;;;5.60;;
12958;SDS011;6544;51.666;6.634;2023-08-06T02:57:26;7.82;;;5.18;;
12958;SDS011;6544;51.666;6.634;2023-08-06T02:59:53;6.35;;;5.22;;
12958;SDS011;6544;51.666;6.634;2023-08-06T03:02:21;6.25;;;4.82;;
12958;SDS011;6544;51.666;6.634;2023-08-06T03:04:51;7.00;;;4.90;;
12958;SDS011;6544;51.666;6.634;2023-08-06T03:07:19;6.57;;;5.10;;
12958;SDS011;6544;51.666;6.634;2023-08-06T03:09:46;6.65;;;4.47;;
12958;SDS011;6544;51.666;6.634;2023-08-06T03:12:13;5.68;;;4.50;;
12958;SDS011;6544;51.666;6.634;2023-08-06T03:14:40;5.72;;;4.30;;
12958;SDS011;6544;51.666;6.634;2023-08-06T03:17:07;6.20;;;5.03;;
12958;SDS011;6544;51.666;6.634;2023-08-06T03:19:35;6.15;;;4.18;;
12958;SDS011;6544;51.666;6.634;2023-08-06T03:22:02;5.75;;;4.65;;
12958;SDS011;6544;51.666;6.634;2023-08-06T03:24:29;11.55;;;4.88;;
12958;SDS011;6544;51.666;6.634;2023-08-06T03:26:55;5.60;;;4.60;;
12958;SDS011;6544;51.666;6.634;2023-08-06T03:29:22;6.88;;;4.45;;
12958;SDS011;6544;51.666;6.634;2023-08-06T03:31:49;6.60;;;4.53;;
12958;SDS011;6544;51.666;6.634;2023-08-06T03:34:17;7.25;;;4.50;;
12958;SDS011;6544;51.666;6.634;2023-08-06T03:36:46;4.80;;;4.25;;
12958;SDS011;6544;51.666;6.634;2023-08-06T03:39:13;6.55;;;5.07;;
12958;SDS011;6544;51.666;6.634;2023-08-06T03:41:41;6.55;;;4.70;;
12958;SDS011;6544;51.666;6.634;2023-08-06T03:44:08;7.65;;;4.63;;
12958;SDS011;6544;51.666;6.634;2023-08-06T03:46:35;8.00;;;4.75;;
12958;SDS011;6544;51.666;6.634;2023-08-06T03:49:02;7.75;;;4.78;;
12958;SDS011;6544;51.666;6.634;2023-08-06T03:51:29;7.72;;;5.07;;
12958;SDS011;6544;51.666;6.634;2023-08-06T03:53:57;5.32;;;4.20;;
12958;SDS011;6544;51.666;6.634;2023-08-06T03:56:24;5.57;;;4.35;;
12958;SDS011;6544;51.666;6.634;2023-08-06T03:58:51;6.88;;;4.80;;
12958;SDS011;6544;51.666;6.634;2023-08-06T04:01:17;5.45;;;4.57;;
12958;SDS011;6544;51.666;6.634;2023-08-06T04:03:44;6.70;;;4.38;;
12958;SDS011;6544;51.666;6.634;2023-08-06T04:06:11;6.63;;;4.43;;
12958;SDS011;6544;51.666;6.634;2023-08-06T04:08:38;5.78;;;4.22;;
12958;SDS011;6544;51.666;6.634;2023-08-06T04:11:06;6.93;;;4.20;;
12958;SDS011;6544;51.666;6.634;2023-08-06T04:13:33;6.78;;;4.47;;
12958;SDS011;6544;51.666;6.634;2023-08-06T04:16:00;6.25;;;4.60;;
12958;SDS011;6544;51.666;6.634;2023-08-06T04:18:28;6.75;;;4.82;;
12958;SDS011;6544;51.666;6.634;2023-08-06T04:20:56;7.80;;;4.65;;
12958;SDS011;6544;51.666;6.634;2023-08-06T04:23:23;6.30;;;4.35;;
12958;SDS011;6544;51.666;6.634;2023-08-06T04:25:50;7.80;;;4.65;;
12958;SDS011;6544;51.666;6.634;2023-08-06T04:28:19;10.15;;;4.63;;
12958;SDS011;6544;51.666;6.634;2023-08-06T04:30:46;6.35;;;4.43;;
12958;SDS011;6544;51.666;6.634;2023-08-06T04:33:12;6.85;;;4.63;;
12958;SDS011;6544;51.666;6.634;2023-08-06T04:35:39;6.72;;;4.43;;
12958;SDS011;6544;51.666;6.634;2023-08-06T04:38:06;6.03;;;4.40;;
12958;SDS011;6544;51.666;6.634;2023-08-06T04:40:33;4.63;;;3.90;;
12958;SDS011;6544;51.666;6.634;2023-08-06T04:43:00;7.40;;;4.45;;
12958;SDS011;6544;51.666;6.634;2023-08-06T04:45:28;5.50;;;4.40;;
12958;SDS011;6544;51.666;6.634;2023-08-06T04:47:55;7.63;;;4.80;;
12958;SDS011;6544;51.666;6.634;2023-08-06T04:50:22;5.38;;;4.22;;
12958;SDS011;6544;51.666;6.634;2023-08-06T04:52:49;5.32;;;4.55;;
12958;SDS011;6544;51.666;6.634;2023-08-06T04:55:16;5.55;;;4.35;;
12958;SDS011;6544;51.666;6.634;2023-08-06T04:57:42;7.15;;;4.43;;
12958;SDS011;6544;51.666;6.634;2023-08-06T05:00:16;5.90;;;4.43;;
12958;SDS011;6544;51.666;6.634;2023-08-06T05:02:44;6.95;;;4.95;;
12958;SDS011;6544;51.666;6.634;2023-08-06T05:05:11;6.78;;;4.45;;
12958;SDS011;6544;51.666;6.634;2023-08-06T05:07:38;4.75;;;4.25;;
12958;SDS011;6544;51.666;6.634;2023-08-06T05:10:05;7.20;;;4.90;;
12958;SDS011;6544;51.666;6.634;2023-08-06T05:12:33;6.38;;;4.85;;
12958;SDS011;6544;51.666;6.634;2023-08-06T05:15:00;5.40;;;4.90;;
12958;SDS011;6544;51.666;6.634;2023-08-06T05:17:27;9.50;;;4.70;;
12958;SDS011;6544;51.666;6.634;2023-08-06T05:19:56;7.43;;;5.40;;
12958;SDS011;6544;51.666;6.634;2023-08-06T05:22:24;5.88;;;5.20;;
12958;SDS011;6544;51.666;6.634;2023-08-06T05:24:51;8.38;;;5.28;;
12958;SDS011;6544;51.666;6.634;2023-08-06T05:27:18;7.40;;;5.55;;
12958;SDS011;6544;51.666;6.634;2023-08-06T05:29:45;11.18;;;4.93;;
12958;SDS011;6544;51.666;6.634;2023-08-06T05:32:11;8.13;;;5.13;;
12958;SDS011;6544;51.666;6.634;2023-08-06T05:34:38;5.15;;;4.65;;
12958;SDS011;6544;51.666;6.634;2023-08-06T05:37:07;6.85;;;5.45;;
12958;SDS011;6544;51.666;6.634;2023-08-06T05:39:34;5.75;;;5.03;;
12958;SDS011;6544;51.666;6.634;2023-08-06T05:42:01;7.35;;;4.60;;
12958;SDS011;6544;51.666;6.634;2023-08-06T05:44:28;7.50;;;5.30;;
12958;SDS011;6544;51.666;6.634;2023-08-06T05:46:55;10.82;;;5.95;;
12958;SDS011;6544;51.666;6.634;2023-08-06T05:49:22;6.22;;;5.45;;
12958;SDS011;6544;51.666;6.634;2023-08-06T05:51:49;11.07;;;5.68;;
12958;SDS011;6544;51.666;6.634;2023-08-06T05:54:19;7.57;;;5.15;;
12958;SDS011;6544;51.666;6.634;2023-08-06T05:56:47;6.40;;;5.07;;
12958;SDS011;6544;51.666;6.634;2023-08-06T05:59:14;8.38;;;5.38;;
12958;SDS011;6544;51.666;6.634;2023-08-06T06:01:41;5.93;;;4.47;;
12958;SDS011;6544;51.666;6.634;2023-08-06T06:04:07;6.85;;;4.50;;
12958;SDS011;6544;51.666;6.634;2023-08-06T06:06:34;8.93;;;4.47;;
12958;SDS011;6544;51.666;6.634;2023-08-06T06:09:01;4.63;;;4.10;;
12958;SDS011;6544;51.666;6.634;2023-08-06T06:11:29;5.05;;;4.30;;
12958;SDS011;6544;51.666;6.634;2023-08-06T06:13:56;6.13;;;4.18;;
12958;SDS011;6544;51.666;6.634;2023-08-06T06:16:23;6.93;;;4.32;;
12958;SDS011;6544;51.666;6.634;2023-08-06T06:18:50;7.55;;;3.80;;
12958;SDS011;6544;51.666;6.634;2023-08-06T06:21:17;5.97;;;3.97;;
12958;SDS011;6544;51.666;6.634;2023-08-06T06:23:44;5.65;;;4.20;;
12958;SDS011;6544;51.666;6.634;2023-08-06T06:26:11;6.00;;;3.95;;
12958;SDS011;6544;51.666;6.634;2023-08-06T06:28:39;7.10;;;4.07;;
12958;SDS011;6544;51.666;6.634;2023-08-06T06:31:06;6.28;;;4.22;;
12958;SDS011;6544;51.666;6.634;2023-08-06T06:33:34;6.60;;;3.95;;
12958;SDS011;6544;51.666;6.634;2023-08-06T06:36:02;4.85;;;4.20;;
12958;SDS011;6544;51.666;6.634;2023-08-06T06:38:29;7.10;;;4.10;;
12958;SDS011;6544;51.666;6.634;2023-08-06T06:40:56;8.75;;;4.20;;
12958;SDS011;6544;51.666;6.634;2023-08-06T06:43:23;6.55;;;4.07;;
12958;SDS011;6544;51.666;6.634;2023-08-06T06:45:53;4.90;;;4.10;;
12958;SDS011;6544;51.666;6.634;2023-08-06T06:48:22;8.90;;;3.90;;
12958;SDS011;6544;51.666;6.634;2023-08-06T06:50:49;5.70;;;4.25;;
12958;SDS011;6544;51.666;6.634;2023-08-06T06:53:15;8.27;;;4.45;;
12958;SDS011;6544;51.666;6.634;2023-08-06T06:55:42;5.47;;;4.00;;
12958;SDS011;6544;51.666;6.634;2023-08-06T06:58:09;6.88;;;4.07;;
12958;SDS011;6544;51.666;6.634;2023-08-06T07:00:36;7.28;;;4.10;;
12958;SDS011;6544;51.666;6.634;2023-08-06T07:03:05;7.40;;;4.22;;
12958;SDS011;6544;51.666;6.634;2023-08-06T07:05:31;6.28;;;5.03;;
12958;SDS011;6544;51.666;6.634;2023-08-06T07:07:59;10.23;;;4.88;;
12958;SDS011;6544;51.666;6.634;2023-08-06T07:10:29;8.43;;;5.10;;
12958;SDS011;6544;51.666;6.634;2023-08-06T07:12:55;6.80;;;4.93;;
12958;SDS011;6544;51.666;6.634;2023-08-06T07:15:22;7.70;;;4.05;;
12958;SDS011;6544;51.666;6.634;2023-08-06T07:17:49;6.43;;;4.28;;
12958;SDS011;6544;51.666;6.634;2023-08-06T07:20:17;7.38;;;4.20;;
12958;SDS011;6544;51.666;6.634;2023-08-06T07:22:44;8.80;;;4.40;;
12958;SDS011;6544;51.666;6.634;2023-08-06T07:25:11;8.43;;;4.82;;
12958;SDS011;6544;51.666;6.634;2023-08-06T07:27:38;5.97;;;4.30;;
12958;SDS011;6544;51.666;6.634;2023-08-06T07:30:05;6.07;;;4.60;;
12958;SDS011;6544;51.666;6.634;2023-08-06T07:32:33;7.95;;;4.28;;
12958;SDS011;6544;51.666;6.634;2023-08-06T07:35:00;6.68;;;4.30;;
12958;SDS011;6544;51.666;6.634;2023-08-06T07:37:44;6.20;;;3.80;;
12958;SDS011;6544;51.666;6.634;2023-08-06T07:40:11;7.25;;;4.25;;
12958;SDS011;6544;51.666;6.634;2023-08-06T07:42:38;7.60;;;4.55;;
12958;SDS011;6544;51.666;6.634;2023-08-06T07:45:06;4.80;;;3.33;;
12958;SDS011;6544;51.666;6.634;2023-08-06T07:47:37;5.38;;;3.28;;
12958;SDS011;6544;51.666;6.634;2023-08-06T07:50:04;5.93;;;3.08;;
12958;SDS011;6544;51.666;6.634;2023-08-06T07:52:32;6.68;;;3.35;;
12958;SDS011;6544;51.666;6.634;2023-08-06T07:55:03;6.45;;;3.78;;
12958;SDS011;6544;51.666;6.634;2023-08-06T07:57:45;6.78;;;3.50;;
12958;SDS011;6544;51.666;6.634;2023-08-06T08:00:12;5.93;;;3.72;;
12958;SDS011;6544;51.666;6.634;2023-08-06T08:02:39;5.78;;;3.97;;
12958;SDS011;6544;51.666;6.634;2023-08-06T08:05:06;5.82;;;4.10;;
12958;SDS011;6544;51.666;6.634;2023-08-06T08:07:33;7.68;;;4.25;;
12958;SDS011;6544;51.666;6.634;2023-08-06T08:10:01;6.47;;;3.97;;
12958;SDS011;6544;51.666;6.634;2023-08-06T08:12:30;9.15;;;3.85;;
12958;SDS011;6544;51.666;6.634;2023-08-06T08:14:57;5.35;;;3.58;;
12958;SDS011;6544;51.666;6.634;2023-08-06T08:17:24;8.40;;;3.90;;
12958;SDS011;6544;51.666;6.634;2023-08-06T08:19:51;4.50;;;3.40;;
12958;SDS011;6544;51.666;6.634;2023-08-06T08:22:17;4.13;;;3.20;;
12958;SDS011;6544;51.666;6.634;2023-08-06T08:24:47;6.90;;;3.47;;
12958;SDS011;6544;51.666;6.634;2023-08-06T08:27:15;4.32;;;3.22;;
12958;SDS011;6544;51.666;6.634;2023-08-06T08:29:42;6.05;;;4.40;;
12958;SDS011;6544;51.666;6.634;2023-08-06T08:32:09;8.43;;;5.63;;
12958;SDS011;6544;51.666;6.634;2023-08-06T08:34:36;10.75;;;9.65;;
12958;SDS011;6544;51.666;6.634;2023-08-06T08:37:03;13.43;;;11.05;;
12958;SDS011;6544;51.666;6.634;2023-08-06T08:39:31;12.18;;;11.07;;
12958;SDS011;6544;51.666;6.634;2023-08-06T08:41:58;12.35;;;11.23;;
12958;SDS011;6544;51.666;6.634;2023-08-06T08:44:27;13.43;;;12.23;;
12958;SDS011;6544;51.666;6.634;2023-08-06T08:46:55;17.40;;;11.82;;
12958;SDS011;6544;51.666;6.634;2023-08-06T08:49:23;16.73;;;11.45;;
12958;SDS011;6544;51.666;6.634;2023-08-06T08:51:50;12.30;;;11.00;;
12958;SDS011;6544;51.666;6.634;2023-08-06T08:54:20;11.30;;;10.20;;
12958;SDS011;6544;51.666;6.634;2023-08-06T08:56:50;12.48;;;10.48;;
12958;SDS011;6544;51.666;6.634;2023-08-06T08:59:17;12.75;;;11.45;;
12958;SDS011;6544;51.666;6.634;2023-08-06T09:01:45;12.85;;;11.35;;
12958;SDS011;6544;51.666;6.634;2023-08-06T09:04:16;13.18;;;11.80;;
12958;SDS011;6544;51.666;6.634;2023-08-06T09:06:43;12.48;;;11.27;;
12958;SDS011;6544;51.666;6.634;2023-08-06T09:09:17;12.85;;;11.55;;
12958;SDS011;6544;51.666;6.634;2023-08-06T09:11:48;15.55;;;11.80;;
12958;SDS011;6544;51.666;6.634;2023-08-06T09:14:15;13.02;;;11.82;;
12958;SDS011;6544;51.666;6.634;2023-08-06T09:16:44;13.35;;;11.98;;
12958;SDS011;6544;51.666;6.634;2023-08-06T09:19:12;15.02;;;12.27;;
12958;SDS011;6544;51.666;6.634;2023-08-06T09:21:40;13.40;;;11.93;;
12958;SDS011;6544;51.666;6.634;2023-08-06T09:24:08;13.40;;;12.00;;
12958;SDS011;6544;51.666;6.634;2023-08-06T09:26:36;13.95;;;12.10;;
12958;SDS011;6544;51.666;6.634;2023-08-06T09:29:04;13.38;;;11.82;;
12958;SDS011;6544;51.666;6.634;2023-08-06T09:31:33;13.48;;;12.07;;
12958;SDS011;6544;51.666;6.634;2023-08-06T09:34:09;13.00;;;11.75;;
12958;SDS011;6544;51.666;6.634;2023-08-06T09:36:39;13.82;;;12.40;;
12958;SDS011;6544;51.666;6.634;2023-08-06T09:39:12;14.73;;;11.90;;
12958;SDS011;6544;51.666;6.634;2023-08-06T09:41:40;13.07;;;11.77;;
12958;SDS011;6544;51.666;6.634;2023-08-06T09:44:12;14.35;;;11.68;;
12958;SDS011;6544;51.666;6.634;2023-08-06T09:46:42;12.82;;;11.52;;
12958;SDS011;6544;51.666;6.634;2023-08-06T09:49:14;11.93;;;10.80;;
12958;SDS011;6544;51.666;6.634;2023-08-06T09:51:41;11.77;;;10.57;;
12958;SDS011;6544;51.666;6.634;2023-08-06T09:54:09;11.45;;;10.35;;
12958;SDS011;6544;51.666;6.634;2023-08-06T09:56:38;11.80;;;10.60;;
12958;SDS011;6544;51.666;6.634;2023-08-06T09:59:06;11.23;;;10.23;;
12958;SDS011;6544;51.666;6.634;2023-08-06T10:01:34;11.38;;;10.27;;
12958;SDS011;6544;51.666;6.634;2023-08-06T10:04:01;12.23;;;10.15;;
12958;SDS011;6544;51.666;6.634;2023-08-06T10:06:31;12.32;;;10.70;;
12958;SDS011;6544;51.666;6.634;2023-08-06T10:09:01;11.73;;;10.50;;
12958;SDS011;6544;51.666;6.634;2023-08-06T10:11:28;13.10;;;11.40;;
12958;SDS011;6544;51.666;6.634;2023-08-06T10:13:57;13.48;;;12.27;;
12958;SDS011;6544;51.666;6.634;2023-08-06T10:16:28;13.40;;;11.65;;
12958;SDS011;6544;51.666;6.634;2023-08-06T10:18:57;13.43;;;12.13;;
12958;SDS011;6544;51.666;6.634;2023-08-06T10:21:24;12.70;;;11.48;;
12958;SDS011;6544;51.666;6.634;2023-08-06T10:23:54;13.15;;;11.85;;
12958;SDS011;6544;51.666;6.634;2023-08-06T10:26:24;12.35;;;11.07;;
12958;SDS011;6544;51.666;6.634;2023-08-06T10:28:52;12.57;;;10.85;;
12958;SDS011;6544;51.666;6.634;2023-08-06T10:31:20;9.50;;;8.60;;
12958;SDS011;6544;51.666;6.634;2023-08-06T10:34:07;10.05;;;9.15;;
12958;SDS011;6544;51.666;6.634;2023-08-06T10:36:34;11.07;;;10.07;;
12958;SDS011;6544;51.666;6.634;2023-08-06T10:39:02;11.38;;;10.38;;
12958;SDS011;6544;51.666;6.634;2023-08-06T10:41:29;11.63;;;10.55;;
12958;SDS011;6544;51.666;6.634;2023-08-06T10:44:05;12.50;;;11.40;;
12958;SDS011;6544;51.666;6.634;2023-08-06T10:46:33;10.20;;;9.30;;
12958;SDS011;6544;51.666;6.634;2023-08-06T10:49:00;10.82;;;9.70;;
12958;SDS011;6544;51.666;6.634;2023-08-06T10:51:30;11.70;;;10.50;;
12958;SDS011;6544;51.666;6.634;2023-08-06T10:53:57;11.88;;;10.80;;
12958;SDS011;6544;51.666;6.634;2023-08-06T10:56:25;12.45;;;11.35;;
12958;SDS011;6544;51.666;6.634;2023-08-06T10:58:55;13.13;;;11.70;;
12958;SDS011;6544;51.666;6.634;2023-08-06T11:01:23;12.40;;;11.18;;
12958;SDS011;6544;51.666;6.634;2023-08-06T11:03:51;13.38;;;12.18;;
12958;SDS011;6544;51.666;6.634;2023-08-06T11:06:30;14.93;;;12.35;;
12958;SDS011;6544;51.666;6.634;2023-08-06T11:08:57;13.57;;;12.27;;
12958;SDS011;6544;51.666;6.634;2023-08-06T11:11:28;12.25;;;11.05;;
12958;SDS011;6544;51.666;6.634;2023-08-06T11:13:56;6.25;;;5.22;;
12958;SDS011;6544;51.666;6.634;2023-08-06T11:16:23;4.72;;;4.32;;
12958;SDS011;6544;51.666;6.634;2023-08-06T11:18:50;4.28;;;3.88;;
12958;SDS011;6544;51.666;6.634;2023-08-06T11:21:19;4.65;;;3.10;;
12958;SDS011;6544;51.666;6.634;2023-08-06T11:23:49;4.28;;;3.20;;
12958;SDS011;6544;51.666;6.634;2023-08-06T11:26:18;2.83;;;2.60;;
12958;SDS011;6544;51.666;6.634;2023-08-06T11:28:47;3.13;;;2.30;;
12958;SDS011;6544;51.666;6.634;2023-08-06T11:31:20;3.05;;;2.38;;
12958;SDS011;6544;51.666;6.634;2023-08-06T11:33:48;3.53;;;2.03;;
12958;SDS011;6544;51.666;6.634;2023-08-06T11:36:16;5.65;;;2.53;;
12958;SDS011;6544;51.666;6.634;2023-08-06T11:38:54;3.85;;;2.00;;
12958;SDS011;6544;51.666;6.634;2023-08-06T11:41:21;3.30;;;1.65;;
12958;SDS011;6544;51.666;6.634;2023-08-06T11:43:49;1.98;;;1.40;;
12958;SDS011;6544;51.666;6.634;2023-08-06T11:46:17;2.00;;;1.00;;
12958;SDS011;6544;51.666;6.634;2023-08-06T11:48:50;2.22;;;1.10;;
12958;SDS011;6544;51.666;6.634;2023-08-06T11:51:18;1.30;;;1.10;;
12958;SDS011;6544;51.666;6.634;2023-08-06T11:53:46;1.50;;;1.00;;
12958;SDS011;6544;51.666;6.634;2023-08-06T11:56:14;2.03;;;1.20;;
12958;SDS011;6544;51.666;6.634;2023-08-06T11:58:42;1.52;;;0.90;;
12958;SDS011;6544;51.666;6.634;2023-08-06T12:01:11;1.73;;;1.00;;
12958;SDS011;6544;51.666;6.634;2023-08-06T12:03:39;1.90;;;1.23;;
12958;SDS011;6544;51.666;6.634;2023-08-06T12:06:06;1.10;;;1.00;;
12958;SDS011;6544;51.666;6.634;2023-08-06T12:08:33;1.73;;;1.00;;
12958;SDS011;6544;51.666;6.634;2023-08-06T12:11:00;1.77;;;1.30;;
12958;SDS011;6544;51.666;6.634;2023-08-06T12:13:28;2.00;;;1.15;;
12958;SDS011;6544;51.666;6.634;2023-08-06T12:15:55;1.70;;;1.20;;
12958;SDS011;6544;51.666;6.634;2023-08-06T12:18:23;1.90;;;1.20;;
12958;SDS011;6544;51.666;6.634;2023-08-06T12:20:51;5.53;;;1.50;;
12958;SDS011;6544;51.666;6.634;2023-08-06T12:23:18;2.92;;;1.30;;
12958;SDS011;6544;51.666;6.634;2023-08-06T12:25:45;1.95;;;1.50;;
12958;SDS011;6544;51.666;6.634;2023-08-06T12:28:12;1.20;;;1.10;;
12958;SDS011;6544;51.666;6.634;2023-08-06T12:30:39;1.60;;;1.20;;
12958;SDS011;6544;51.666;6.634;2023-08-06T12:33:08;1.42;;;1.20;;
12958;SDS011;6544;51.666;6.634;2023-08-06T12:35:36;2.08;;;1.40;;
12958;SDS011;6544;51.666;6.634;2023-08-06T12:38:03;1.75;;;1.40;;
12958;SDS011;6544;51.666;6.634;2023-08-06T12:40:30;1.63;;;1.40;;
12958;SDS011;6544;51.666;6.634;2023-08-06T12:42:57;2.92;;;1.60;;
12958;SDS011;6544;51.666;6.634;2023-08-06T12:45:25;1.67;;;1.40;;
12958;SDS011;6544;51.666;6.634;2023-08-06T12:47:51;2.83;;;1.60;;
12958;SDS011;6544;51.666;6.634;2023-08-06T12:50:18;2.00;;;1.52;;
12958;SDS011;6544;51.666;6.634;2023-08-06T12:52:47;2.00;;;1.50;;
12958;SDS011;6544;51.666;6.634;2023-08-06T12:55:14;1.50;;;1.40;;
12958;SDS011;6544;51.666;6.634;2023-08-06T12:57:41;2.00;;;1.50;;
12958;SDS011;6544;51.666;6.634;2023-08-06T13:00:08;1.95;;;1.55;;
12958;SDS011;6544;51.666;6.634;2023-08-06T13:02:35;2.88;;;1.70;;
12958;SDS011;6544;51.666;6.634;2023-08-06T13:05:02;2.65;;;2.10;;
12958;SDS011;6544;51.666;6.634;2023-08-06T13:07:31;2.80;;;2.38;;
12958;SDS011;6544;51.666;6.634;2023-08-06T13:09:59;3.60;;;2.25;;
12958;SDS011;6544;51.666;6.634;2023-08-06T13:12:26;2.95;;;2.50;;
12958;SDS011;6544;51.666;6.634;2023-08-06T13:14:53;3.78;;;2.60;;
12958;SDS011;6544;51.666;6.634;2023-08-06T13:17:22;3.13;;;2.83;;
12958;SDS011;6544;51.666;6.634;2023-08-06T13:19:49;3.25;;;2.92;;
12958;SDS011;6544;51.666;6.634;2023-08-06T13:22:16;4.05;;;3.25;;
12958;SDS011;6544;51.666;6.634;2023-08-06T13:24:43;5.22;;;3.30;;
12958;SDS011;6544;51.666;6.634;2023-08-06T13:27:12;4.13;;;3.05;;
12958;SDS011;6544;51.666;6.634;2023-08-06T13:29:39;4.57;;;3.42;;
12958;SDS011;6544;51.666;6.634;2023-08-06T13:32:06;4.43;;;3.10;;
12958;SDS011;6544;51.666;6.634;2023-08-06T13:34:33;4.03;;;3.35;;
12958;SDS011;6544;51.666;6.634;2023-08-06T13:37:00;3.90;;;3.20;;
12958;SDS011;6544;51.666;6.634;2023-08-06T13:39:27;4.03;;;3.00;;
12958;SDS011;6544;51.666;6.634;2023-08-06T13:41:56;3.88;;;2.95;;
12958;SDS011;6544;51.666;6.634;2023-08-06T13:44:24;3.78;;;3.00;;
12958;SDS011;6544;51.666;6.634;2023-08-06T13:46:51;4.95;;;3.17;;
12958;SDS011;6544;51.666;6.634;2023-08-06T13:49:18;3.50;;;3.00;;
12958;SDS011;6544;51.666;6.634;2023-08-06T13:51:45;5.65;;;3.13;;
12958;SDS011;6544;51.666;6.634;2023-08-06T13:54:12;4.03;;;3.10;;
12958;SDS011;6544;51.666;6.634;2023-08-06T13:56:39;3.88;;;3.00;;
12958;SDS011;6544;51.666;6.634;2023-08-06T13:59:06;4.22;;;3.20;;
12958;SDS011;6544;51.666;6.634;2023-08-06T14:01:34;4.95;;;3.63;;
12958;SDS011;6544;51.666;6.634;2023-08-06T14:04:04;5.00;;;4.03;;
12958;SDS011;6544;51.666;6.634;2023-08-06T14:06:31;4.97;;;3.85;;
12958;SDS011;6544;51.666;6.634;2023-08-06T14:08:58;5.57;;;3.85;;
12958;SDS011;6544;51.666;6.634;2023-08-06T14:11:25;4.78;;;3.75;;
12958;SDS011;6544;51.666;6.634;2023-08-06T14:13:52;5.70;;;3.83;;
12958;SDS011;6544;51.666;6.634;2023-08-06T14:16:19;6.57;;;4.07;;
12958;SDS011;6544;51.666;6.634;2023-08-06T14:18:48;5.10;;;3.70;;
12958;SDS011;6544;51.666;6.634;2023-08-06T14:21:15;4.32;;;3.60;;
12958;SDS011;6544;51.666;6.634;2023-08-06T14:23:42;5.63;;;3.72;;
12958;SDS011;6544;51.666;6.634;2023-08-06T14:26:08;5.45;;;3.30;;
12958;SDS011;6544;51.666;6.634;2023-08-06T14:28:36;4.85;;;3.50;;
12958;SDS011;6544;51.666;6.634;2023-08-06T14:31:03;5.60;;;4.00;;
12958;SDS011;6544;51.666;6.634;2023-08-06T14:33:30;5.93;;;3.80;;
12958;SDS011;6544;51.666;6.634;2023-08-06T14:35:58;6.45;;;3.95;;
12958;SDS011;6544;51.666;6.634;2023-08-06T14:38:25;5.85;;;3.70;;
12958;SDS011;6544;51.666;6.634;2023-08-06T14:40:52;6.25;;;3.85;;
12958;SDS011;6544;51.666;6.634;2023-08-06T14:43:19;5.07;;;3.60;;
12958;SDS011;6544;51.666;6.634;2023-08-06T14:45:47;4.20;;;3.35;;
12958;SDS011;6544;51.666;6.634;2023-08-06T14:48:14;4.97;;;3.42;;
12958;SDS011;6544;51.666;6.634;2023-08-06T14:50:42;4.25;;;3.15;;
12958;SDS011;6544;51.666;6.634;2023-08-06T14:53:11;4.15;;;3.30;;
12958;SDS011;6544;51.666;6.634;2023-08-06T14:55:38;3.47;;;2.70;;
12958;SDS011;6544;51.666;6.634;2023-08-06T14:58:06;4.47;;;3.30;;
12958;SDS011;6544;51.666;6.634;2023-08-06T15:00:34;4.40;;;3.13;;
12958;SDS011;6544;51.666;6.634;2023-08-06T15:03:01;4.63;;;3.00;;